Time;durP1;ratioP1;P1;durP2;ratioP2;P2;SDS_P1;SDS_P2;PMS_P1;PMS_P2;Temp;Humidity;BMP_temperature;BMP_pressure;BME280_temperature;BME280_humidity;BME280_pressure;Samples;Min_cycle;Max_cycle;Signal;HPM_P1;HPM_P2
2022/09/11 00:01:45;;;;;;;;;2.67;2.33;;;;;19.01;70.55;100284.25;4978264;28;45250;-79
2022/09/11 00:04:11;;;;;;;;;3.00;3.00;;;;;19.11;70.36;100304.44;4992969;28;45539;-79
2022/09/11 00:06:37;;;;;;;;;1.33;1.33;;;;;19.01;70.81;100286.88;4977981;28;45207;-79
2022/09/11 00:09:05;;;;;;;;;3.33;2.33;;;;;19.06;71.27;100300.97;4977689;28;46373;-79
2022/09/11 00:11:39;;;;;;;;;3.00;2.33;;;;;19.03;71.35;100299.22;4977703;28;45458;-79
2022/09/11 00:14:04;;;;;;;;;3.00;2.00;;;;;18.92;71.16;100279.00;4976162;28;45499;-78
2022/09/11 00:16:36;;;;;;;;;2.33;2.00;;;;;18.93;71.31;100281.66;4977694;28;45408;-79
2022/09/11 00:19:07;;;;;;;;;1.00;1.00;;;;;19.00;71.87;100295.72;4977147;28;45435;-79
2022/09/11 00:21:33;;;;;;;;;3.33;3.00;;;;;18.98;71.84;100290.44;4977377;28;45483;-79
2022/09/11 00:23:59;;;;;;;;;3.00;2.00;;;;;18.91;72.22;100285.22;4992618;28;45527;-78
2022/09/11 00:26:24;;;;;;;;;3.00;2.00;;;;;18.95;71.87;100297.53;4976480;28;45516;-79
2022/09/11 00:28:51;;;;;;;;;2.33;2.00;;;;;18.99;71.66;100297.47;4977242;28;47794;-80
2022/09/11 00:31:19;;;;;;;;;2.00;2.00;;;;;18.94;71.12;100275.50;4977533;28;45499;-79
2022/09/11 00:33:45;;;;;;;;;3.00;2.00;;;;;18.91;71.09;100271.97;4977471;28;45507;-80
2022/09/11 00:36:24;;;;;;;;;2.00;2.00;;;;;18.73;71.29;100247.38;4977634;28;45443;-79
2022/09/11 00:38:50;;;;;;;;;4.00;3.00;;;;;18.80;71.12;100253.53;4976134;28;45425;-72
2022/09/11 00:41:24;;;;;;;;;2.50;2.50;;;;;18.96;70.66;100286.94;4977493;28;45364;-80
2022/09/11 00:44:27;;;;;;;;;2.67;1.67;;;;;18.90;70.46;100275.50;4977743;28;45372;-73
2022/09/11 00:46:54;;;;;;;;;2.00;1.67;;;;;18.87;70.80;100279.06;4976103;28;45313;-79
2022/09/11 00:49:31;;;;;;;;;1.67;1.67;;;;;18.81;71.15;100273.81;4977157;28;46138;-76
2022/09/11 00:52:14;;;;;;;;;2.33;2.33;;;;;18.81;71.24;100282.63;4976962;28;45443;-79
2022/09/11 00:54:55;;;;;;;;;2.67;1.67;;;;;18.79;71.66;100287.06;4977335;28;45410;-74
2022/09/11 00:57:25;;;;;;;;;2.00;2.00;;;;;18.62;72.20;100268.66;4976338;28;45559;-74
2022/09/11 00:59:57;;;;;;;;;2.00;2.00;;;;;18.56;73.04;100283.66;4976864;28;45696;-72
2022/09/11 01:02:25;;;;;;;;;2.00;2.00;;;;;18.36;72.90;100260.00;4975685;28;45468;-79
2022/09/11 01:04:52;;;;;;;;;1.67;1.67;;;;;18.28;73.35;100268.88;4977117;28;45606;-75
2022/09/11 01:07:20;;;;;;;;;1.67;1.67;;;;;18.21;73.48;100253.06;4977321;28;45356;-80
2022/09/11 01:09:46;;;;;;;;;1.67;1.00;;;;;18.26;73.48;100259.19;4975389;28;47635;-79
2022/09/11 01:12:37;;;;;;;;;1.67;1.67;;;;;18.40;73.21;100272.31;4975490;28;45310;-79
2022/09/11 01:15:12;;;;;;;;;1.67;1.67;;;;;18.39;72.81;100260.00;4975546;28;45533;-80
2022/09/11 01:18:05;;;;;;;;;2.00;2.00;;;;;18.44;72.48;100266.13;4976861;28;45486;-79
2022/09/11 01:21:00;;;;;;;;;2.33;2.33;;;;;18.43;72.72;100257.31;4965695;28;45918;-76
2022/09/11 01:24:10;;;;;;;;;3.00;3.00;;;;;18.45;72.35;100265.25;4991831;28;45275;-79
2022/09/11 01:27:13;;;;;;;;;4.33;3.00;;;;;18.23;71.87;100223.06;4970809;28;45511;-79
2022/09/11 01:29:48;;;;;;;;;2.33;2.33;;;;;18.42;71.89;100263.50;4965591;28;45581;-79
2022/09/11 01:32:20;;;;;;;;;3.00;3.00;;;;;18.43;72.03;100261.72;4980005;28;46041;-79
2022/09/11 01:35:23;;;;;;;;;2.67;1.67;;;;;18.41;72.75;100259.09;4980057;28;45313;-80
2022/09/11 01:38:00;;;;;;;;;1.67;1.67;;;;;18.40;72.20;100259.09;4995426;28;45378;-79
2022/09/11 01:40:38;;;;;;;;;2.00;2.00;;;;;18.29;71.98;100248.59;4979839;28;45535;-79
2022/09/11 01:43:12;;;;;;;;;2.33;2.00;;;;;18.39;72.21;100254.72;4994710;28;47439;-79
2022/09/11 01:45:42;;;;;;;;;2.33;1.67;;;;;18.25;72.65;100231.00;4979734;28;45333;-79
2022/09/11 01:48:12;;;;;;;;;1.00;1.00;;;;;18.20;72.99;100238.94;4979949;28;45620;-78
2022/09/11 01:50:43;;;;;;;;;2.33;2.33;;;;;18.20;73.22;100233.66;4994846;28;45527;-80
2022/09/11 01:53:14;;;;;;;;;1.67;1.67;;;;;18.07;73.74;100230.22;4994549;28;46416;-80
2022/09/11 01:55:47;;;;;;;;;2.33;1.33;;;;;18.09;73.36;100232.84;4979768;28;45416;-78
2022/09/11 01:58:25;;;;;;;;;2.67;2.67;;;;;18.09;73.68;100228.44;4979568;28;45327;-79
2022/09/11 02:00:55;;;;;;;;;2.00;1.67;;;;;18.06;73.53;100220.53;4979817;28;45455;-80
2022/09/11 02:03:30;;;;;;;;;2.67;2.67;;;;;18.19;73.23;100236.31;4979645;28;45435;-76
2022/09/11 02:06:03;;;;;;;;;2.33;2.33;;;;;17.59;73.04;100131.81;4979327;28;45499;-76
2022/09/11 02:08:48;;;;;;;;;3.00;1.67;;;;;18.19;73.38;100228.41;4979607;28;45259;-79
2022/09/11 02:11:16;;;;;;;;;0.67;0.00;;;;;18.17;73.13;100228.41;4979697;28;45350;-77
2022/09/11 02:14:02;;;;;;;;;2.67;1.67;;;;;18.08;72.60;100208.19;4979219;28;46131;-76
2022/09/11 02:16:48;;;;;;;;;1.67;1.67;;;;;18.08;72.60;100216.13;4979087;28;45425;-79
2022/09/11 02:19:19;;;;;;;;;2.67;2.67;;;;;18.19;72.35;100233.69;4979476;28;45461;-79
2022/09/11 02:21:52;;;;;;;;;2.67;2.33;;;;;18.02;72.90;100199.41;4979434;28;45307;-80
2022/09/11 02:24:19;;;;;;;;;2.33;2.33;;;;;18.01;72.95;100213.53;4977908;28;45429;-79
2022/09/11 02:26:49;;;;;;;;;1.67;1.67;;;;;18.11;72.93;100233.72;4979277;28;45322;-79
2022/09/11 02:29:15;;;;;;;;;2.33;2.33;;;;;18.05;72.97;100215.25;4979168;28;45283;-79
2022/09/11 02:31:41;;;;;;;;;2.33;2.33;;;;;17.96;73.27;100208.25;4994349;28;45633;-79
2022/09/11 02:34:10;;;;;;;;;2.00;2.00;;;;;17.80;73.66;100198.63;4977853;28;45453;-79
2022/09/11 02:36:45;;;;;;;;;4.33;3.33;;;;;17.93;73.47;100223.25;4994186;28;45381;-79
2022/09/11 02:39:16;;;;;;;;;1.67;1.67;;;;;17.89;73.87;100223.25;4979174;28;45519;-78
2022/09/11 02:42:09;;;;;;;;;3.67;2.67;;;;;17.92;73.73;100221.50;4979237;28;45298;-79
2022/09/11 02:44:46;;;;;;;;;2.67;2.67;;;;;17.88;74.24;100216.22;4993925;28;48103;-77
2022/09/11 02:47:42;;;;;;;;;4.67;2.67;;;;;17.86;74.04;100215.34;4979004;28;45372;-75
2022/09/11 02:50:28;;;;;;;;;2.00;2.00;;;;;17.85;74.15;100215.38;4977561;28;45488;-79
2022/09/11 02:53:24;;;;;;;;;4.00;3.00;;;;;17.85;74.18;100215.38;4979123;28;45357;-79
2022/09/11 02:55:49;;;;;;;;;3.00;2.00;;;;;17.91;73.87;100215.34;4978869;28;46302;-79
2022/09/11 02:58:26;;;;;;;;;2.50;2.50;;;;;17.84;73.83;100195.09;4977442;28;45484;-79
2022/09/11 03:00:57;;;;;;;;;2.00;2.00;;;;;17.82;73.78;100197.72;4977649;28;45267;-79
2022/09/11 03:03:22;;;;;;;;;2.67;2.67;;;;;17.71;73.60;100173.13;4978886;28;45552;-79
2022/09/11 03:05:48;;;;;;;;;2.00;1.67;;;;;17.75;73.13;100176.66;4978610;28;46702;-79
2022/09/11 03:08:19;;;;;;;;;2.33;2.00;;;;;17.80;73.07;100180.13;4978741;28;45427;-79
2022/09/11 03:10:48;;;;;;;;;2.00;1.67;;;;;17.84;72.94;100182.75;4978750;28;45453;-79
2022/09/11 03:13:15;;;;;;;;;2.00;2.00;;;;;17.89;73.30;100188.03;4978761;28;45369;-79
2022/09/11 03:15:42;;;;;;;;;2.33;2.00;;;;;17.81;73.87;100181.91;4977051;28;45589;-79
2022/09/11 03:18:09;;;;;;;;;2.00;2.00;;;;;17.82;73.54;100181.88;4977005;28;45333;-73
2022/09/11 03:20:35;;;;;;;;;2.33;2.33;;;;;17.75;73.59;100155.50;4978411;28;45341;-79
2022/09/11 03:23:00;;;;;;;;;1.67;1.67;;;;;17.85;73.29;100170.44;4993757;28;45416;-77
2022/09/11 03:25:27;;;;;;;;;2.00;2.00;;;;;17.64;72.94;100130.00;4978654;28;45606;-78
2022/09/11 03:27:53;;;;;;;;;3.00;2.67;;;;;17.70;73.44;100148.47;4993380;28;45326;-78
2022/09/11 03:30:19;;;;;;;;;3.00;2.67;;;;;17.73;73.76;100158.16;4978304;28;45505;-80
2022/09/11 03:32:45;;;;;;;;;2.67;2.67;;;;;17.70;73.69;100153.75;4978497;28;45308;-80
2022/09/11 03:35:11;;;;;;;;;2.67;2.67;;;;;17.58;73.82;100124.75;4978050;28;45475;-79
2022/09/11 03:37:36;;;;;;;;;5.00;3.67;;;;;17.73;73.68;100142.31;4978097;28;45381;-75
2022/09/11 03:40:02;;;;;;;;;3.00;3.00;;;;;17.73;73.34;100130.88;4993306;28;45546;-79
2022/09/11 03:42:28;;;;;;;;;3.00;3.00;;;;;17.76;73.66;100134.34;4978468;28;45545;-79
2022/09/11 03:44:53;;;;;;;;;3.33;3.00;;;;;17.69;74.13;100122.06;4992879;28;46866;-72
2022/09/11 03:47:21;;;;;;;;;2.00;2.00;;;;;17.65;73.78;100122.97;4978065;28;45207;-79
2022/09/11 03:49:47;;;;;;;;;3.00;3.00;;;;;17.80;73.86;100133.44;4978017;28;45480;-79
2022/09/11 03:52:13;;;;;;;;;3.00;2.67;;;;;17.76;73.35;100123.78;4993102;28;45388;-79
2022/09/11 03:54:38;;;;;;;;;3.00;3.00;;;;;17.72;73.25;100100.03;4976966;28;45503;-77
2022/09/11 03:57:05;;;;;;;;;2.00;2.00;;;;;17.74;73.44;100108.84;4977875;28;45357;-79
2022/09/11 03:59:31;;;;;;;;;2.00;2.00;;;;;17.84;73.49;100116.72;4977951;28;45456;-73
2022/09/11 04:01:57;;;;;;;;;3.00;2.33;;;;;17.79;72.82;100105.28;4978050;28;45491;-79
2022/09/11 04:04:23;;;;;;;;;2.67;2.00;;;;;17.75;72.99;100097.41;4975851;28;47905;-79
2022/09/11 04:06:48;;;;;;;;;3.00;3.00;;;;;17.84;72.85;100115.84;4977639;28;45456;-79
2022/09/11 04:09:14;;;;;;;;;3.33;2.00;;;;;17.78;73.03;100108.78;4977831;28;45444;-79
2022/09/11 04:11:40;;;;;;;;;3.00;2.00;;;;;17.74;73.01;100099.13;4977849;28;45516;-77
2022/09/11 04:14:06;;;;;;;;;3.00;3.00;;;;;17.78;73.38;100119.34;4977459;28;45589;-79
2022/09/11 04:16:32;;;;;;;;;2.33;2.33;;;;;17.73;73.53;100109.72;4977598;28;45911;-72
2022/09/11 04:19:01;;;;;;;;;2.67;2.67;;;;;17.75;73.90;100113.25;4977867;28;45381;-79
2022/09/11 04:21:27;;;;;;;;;3.00;2.67;;;;;17.76;73.75;100109.69;4977728;28;45256;-79
2022/09/11 04:23:59;;;;;;;;;3.00;3.00;;;;;17.68;74.08;100085.97;4977463;28;46340;-75
2022/09/11 04:26:27;;;;;;;;;3.00;3.00;;;;;17.66;73.95;100091.25;4992621;28;45467;-78
2022/09/11 04:28:53;;;;;;;;;3.00;2.67;;;;;17.72;73.92;100090.34;4992658;28;45585;-79
2022/09/11 04:31:20;;;;;;;;;3.00;3.00;;;;;17.76;74.28;100104.41;4977639;28;45369;-79
2022/09/11 04:33:46;;;;;;;;;3.00;3.00;;;;;17.76;74.28;100096.50;4977348;28;45446;-79
2022/09/11 04:36:18;;;;;;;;;4.00;3.67;;;;;17.57;75.29;100072.84;4976923;28;45599;-79
2022/09/11 04:38:44;;;;;;;;;3.33;3.33;;;;;17.64;75.08;100100.94;4992292;28;45454;-79
2022/09/11 04:41:10;;;;;;;;;4.00;4.00;;;;;17.48;75.29;100075.53;4977308;28;45555;-79
2022/09/11 04:43:38;;;;;;;;;2.33;2.00;;;;;17.50;75.54;100077.25;4976894;28;45644;-79
2022/09/11 04:46:06;;;;;;;;;3.00;2.67;;;;;17.54;75.34;100101.03;4977220;28;45562;-73
2022/09/11 04:48:32;;;;;;;;;3.00;2.67;;;;;17.51;75.09;100091.38;4977293;28;45502;-78
2022/09/11 04:51:07;;;;;;;;;3.33;3.00;;;;;17.41;75.24;100082.63;4975704;28;45583;-78
2022/09/11 04:53:35;;;;;;;;;2.00;2.00;;;;;17.41;74.82;100074.69;4977428;28;45492;-79
2022/09/11 04:56:06;;;;;;;;;2.00;2.00;;;;;17.54;74.56;100085.19;4977264;28;45452;-79
2022/09/11 04:58:32;;;;;;;;;14.00;14.00;;;;;17.40;74.61;100058.84;4977353;28;45523;-79
2022/09/11 05:00:57;;;;;;;;;4.67;4.67;;;;;17.58;74.55;100089.56;4977324;28;45218;-79
2022/09/11 05:03:23;;;;;;;;;4.00;4.00;;;;;17.63;74.59;100085.13;4992156;28;45441;-79
2022/09/11 05:05:49;;;;;;;;;4.00;3.00;;;;;17.64;74.05;100093.03;4978240;28;45489;-79
2022/09/11 05:08:17;;;;;;;;;3.67;2.67;;;;;17.70;74.64;100084.19;4980921;28;45416;-79
2022/09/11 05:10:43;;;;;;;;;4.33;2.00;;;;;17.64;73.77;100076.31;4980655;28;45431;-79
2022/09/11 05:13:10;;;;;;;;;2.67;2.00;;;;;17.35;73.70;100028.94;4980440;28;46246;-79
2022/09/11 05:15:36;;;;;;;;;3.00;2.67;;;;;17.65;74.00;100081.59;4980206;28;45446;-76
2022/09/11 05:18:02;;;;;;;;;2.67;2.00;;;;;17.56;73.83;100079.00;4980657;28;45405;-79
2022/09/11 05:20:28;;;;;;;;;2.33;2.33;;;;;17.62;73.81;100089.53;4995742;28;45611;-79
2022/09/11 05:22:53;;;;;;;;;3.00;3.00;;;;;17.64;74.23;100089.50;4980075;28;45405;-78
2022/09/11 05:25:20;;;;;;;;;2.00;1.00;;;;;17.61;74.00;100084.28;4980015;28;45223;-79
2022/09/11 05:27:45;;;;;;;;;2.00;2.00;;;;;17.62;73.94;100094.81;4980255;28;45312;-79
2022/09/11 05:30:11;;;;;;;;;3.00;3.00;;;;;17.65;73.97;100096.56;4980177;28;45329;-79
2022/09/11 05:32:37;;;;;;;;;2.00;1.67;;;;;17.66;73.98;100085.09;4980146;28;46368;-73
2022/09/11 05:35:02;;;;;;;;;3.00;2.67;;;;;17.63;73.88;100083.38;4980322;28;45442;-78
2022/09/11 05:37:28;;;;;;;;;3.67;3.00;;;;;17.63;74.25;100091.28;4980108;28;45426;-79
2022/09/11 05:39:53;;;;;;;;;3.00;3.00;;;;;17.49;74.30;100056.16;4995261;28;45759;-79
2022/09/11 05:42:20;;;;;;;;;3.00;3.00;;;;;17.58;74.20;100071.06;4979766;28;46339;-79
2022/09/11 05:44:46;;;;;;;;;3.00;3.00;;;;;17.68;74.28;100086.84;4979746;28;45279;-79
2022/09/11 05:47:13;;;;;;;;;3.00;3.00;;;;;17.59;74.31;100067.56;4994871;28;45428;-78
2022/09/11 05:49:39;;;;;;;;;3.00;3.00;;;;;17.68;74.19;100076.28;4969313;28;45374;-72
2022/09/11 05:52:04;;;;;;;;;4.33;4.00;;;;;17.64;74.40;100065.75;4975892;28;47967;-79
2022/09/11 05:54:30;;;;;;;;;3.67;3.33;;;;;17.66;74.16;100067.47;4968164;28;45496;-79
2022/09/11 05:56:56;;;;;;;;;4.00;3.00;;;;;17.72;74.62;100081.53;4967496;28;45472;-72
2022/09/11 05:59:22;;;;;;;;;3.00;3.00;;;;;17.68;74.55;100073.63;4976085;28;45611;-74
2022/09/11 06:01:47;;;;;;;;;3.33;2.67;;;;;17.62;74.44;100060.47;4982407;28;45565;-73
2022/09/11 06:04:13;;;;;;;;;2.00;2.00;;;;;17.79;73.86;100080.63;4967725;28;45342;-77
2022/09/11 06:06:38;;;;;;;;;3.00;3.00;;;;;17.94;73.71;100088.47;4969176;28;45547;-73
2022/09/11 06:09:05;;;;;;;;;3.67;3.33;;;;;17.85;73.49;100070.03;4967359;28;45624;-76
2022/09/11 06:11:32;;;;;;;;;3.67;3.67;;;;;18.01;73.52;100084.88;4967708;28;46407;-74
2022/09/11 06:13:59;;;;;;;;;5.00;5.00;;;;;18.06;73.22;100076.91;4968969;28;45278;-75
2022/09/11 06:16:25;;;;;;;;;6.67;6.67;;;;;18.11;72.79;100068.97;4973433;28;45528;-73
2022/09/11 06:18:53;;;;;;;;;10.00;8.67;;;;;18.20;72.92;100071.50;4968029;28;45365;-79
2022/09/11 06:21:22;;;;;;;;;5.33;5.33;;;;;18.11;72.93;100059.25;4983521;28;45645;-75
2022/09/11 06:23:49;;;;;;;;;4.67;4.33;;;;;18.19;73.23;100069.78;4967331;28;45448;-79
2022/09/11 06:26:17;;;;;;;;;4.67;3.67;;;;;18.19;73.25;100070.63;4974084;28;45551;-77
2022/09/11 06:28:43;;;;;;;;;3.67;3.67;;;;;18.25;72.69;100061.78;4968979;28;45482;-77
2022/09/11 06:31:11;;;;;;;;;6.67;5.67;;;;;18.36;72.47;100059.88;4966801;28;45497;-77
2022/09/11 06:33:39;;;;;;;;;6.67;6.00;;;;;18.45;72.24;100046.59;4967348;28;45519;-78
2022/09/11 06:36:11;;;;;;;;;5.33;4.33;;;;;18.47;71.89;100042.16;4990025;28;45316;-76
2022/09/11 06:38:38;;;;;;;;;12.00;10.67;;;;;18.53;71.55;100041.22;4973841;28;45758;-73
2022/09/11 06:41:05;;;;;;;;;11.33;9.00;;;;;18.71;71.01;100041.91;4975238;28;45627;-78
2022/09/11 06:43:31;;;;;;;;;19.67;16.00;;;;;18.61;70.57;100017.34;4974096;28;45523;-77
2022/09/11 06:46:11;;;;;;;;;4.33;3.67;;;;;18.82;70.46;100043.59;4966692;28;45527;-79
2022/09/11 06:48:37;;;;;;;;;4.67;4.67;;;;;18.88;70.33;100046.16;4968035;28;45638;-77
2022/09/11 06:51:03;;;;;;;;;5.33;4.00;;;;;21.28;66.38;100058.97;4967958;28;45525;-76
2022/09/11 06:53:29;;;;;;;;;3.33;3.00;;;;;24.73;57.12;100029.53;4982032;28;45615;-79
2022/09/11 06:56:02;;;;;;;;;6.00;4.00;;;;;27.45;49.52;100036.00;4966753;28;45565;-77
2022/09/11 06:58:28;;;;;;;;;2.33;2.00;;;;;29.53;45.49;100054.81;4967185;28;45314;-78
2022/09/11 07:00:55;;;;;;;;;3.67;3.00;;;;;31.02;41.08;100040.59;4962132;28;45714;-80
2022/09/11 07:03:21;;;;;;;;;3.00;3.00;;;;;32.24;39.48;100024.53;4969654;28;45500;-79
2022/09/11 07:05:47;;;;;;;;;2.00;2.00;;;;;33.48;36.59;100048.22;4972265;28;45509;-80
2022/09/11 07:08:12;;;;;;;;;3.00;3.00;;;;;34.25;35.20;100042.47;4982602;28;45684;-80
2022/09/11 07:10:38;;;;;;;;;3.00;2.00;;;;;35.13;33.59;100054.56;4968652;28;45422;-76
2022/09/11 07:13:03;;;;;;;;;3.00;3.00;;;;;35.87;31.09;100058.59;4981964;28;45646;-77
2022/09/11 07:15:30;;;;;;;;;2.33;2.33;;;;;36.29;29.83;100036.91;4966486;28;45374;-77
2022/09/11 07:17:56;;;;;;;;;2.00;2.00;;;;;36.49;29.52;99992.53;4971413;28;45391;-80
2022/09/11 07:20:23;;;;;;;;;2.67;2.33;;;;;37.62;29.15;100059.69;4967113;28;46315;-79
2022/09/11 07:22:48;;;;;;;;;3.00;3.00;;;;;38.23;28.27;100034.06;4967133;28;46253;-79
2022/09/11 07:25:14;;;;;;;;;2.33;2.33;;;;;38.92;27.19;100048.44;4960154;28;45531;-78
2022/09/11 07:27:40;;;;;;;;;2.33;1.00;;;;;39.33;27.31;100043.50;4962296;28;45572;-78
2022/09/11 07:30:07;;;;;;;;;2.67;2.67;;;;;39.77;26.93;100039.09;4964289;28;46192;-77
2022/09/11 07:32:32;;;;;;;;;1.67;1.67;;;;;40.47;25.24;100030.16;4966716;28;45468;-77
2022/09/11 07:35:00;;;;;;;;;2.67;2.67;;;;;40.83;24.92;100021.88;4964910;28;45458;-78
2022/09/11 07:37:26;;;;;;;;;0.67;0.67;;;;;41.50;24.49;100032.06;4965865;28;45496;-78
2022/09/11 07:39:51;;;;;;;;;1.00;1.00;;;;;42.05;23.06;100031.53;4966283;28;45514;-78
2022/09/11 07:42:17;;;;;;;;;1.67;1.67;;;;;42.50;22.54;100018.28;4964693;28;45532;-77
2022/09/11 07:44:42;;;;;;;;;0.67;0.67;;;;;42.75;21.80;99974.31;4966044;28;45445;-76
2022/09/11 07:47:08;;;;;;;;;1.67;1.67;;;;;43.55;21.85;100033.75;4972615;28;45505;-78
2022/09/11 07:49:33;;;;;;;;;1.33;1.33;;;;;44.22;20.91;100035.88;4976887;28;46570;-78
2022/09/11 07:51:59;;;;;;;;;7.33;7.33;;;;;44.63;20.82;100032.75;4976878;28;45297;-77
2022/09/11 07:54:27;;;;;;;;;2.00;2.00;;;;;44.69;20.88;100023.75;4976860;28;45418;-78
2022/09/11 07:56:53;;;;;;;;;1.67;1.67;;;;;44.74;20.88;100021.25;4976685;28;45408;-78
2022/09/11 07:59:19;;;;;;;;;2.00;2.00;;;;;45.20;19.82;100023.81;4976309;28;45483;-77
2022/09/11 08:01:44;;;;;;;;;1.67;1.67;;;;;45.71;20.41;100024.91;4976442;28;45317;-78
2022/09/11 08:04:13;;;;;;;;;1.67;1.67;;;;;46.15;19.44;100026.59;4976656;28;45388;-76
2022/09/11 08:06:38;;;;;;;;;3.00;3.00;;;;;46.37;19.31;100013.59;4975832;28;45373;-78
2022/09/11 08:09:10;;;;;;;;;2.67;2.67;;;;;46.68;19.05;100027.03;4975197;28;47792;-77
2022/09/11 08:11:38;;;;;;;;;3.00;3.00;;;;;47.01;19.33;100029.16;4976067;28;45345;-81
2022/09/11 08:14:03;;;;;;;;;2.33;2.33;;;;;47.34;18.30;100025.72;4956210;28;45470;-79
2022/09/11 08:16:29;;;;;;;;;3.00;3.00;;;;;47.46;18.97;100010.22;4971041;28;45999;-79
2022/09/11 08:18:55;;;;;;;;;1.67;1.67;;;;;47.76;19.40;100021.78;4954809;28;45503;-79
2022/09/11 08:21:22;;;;;;;;;3.00;3.00;;;;;47.72;19.33;100020.50;4967760;28;45504;-79
2022/09/11 08:23:48;;;;;;;;;3.67;3.67;;;;;47.62;19.50;100016.47;4975495;28;45545;-79
2022/09/11 08:26:20;;;;;;;;;2.00;2.00;;;;;47.68;19.88;100019.22;4976939;28;45511;-79
2022/09/11 08:28:49;;;;;;;;;2.33;2.33;;;;;47.74;19.82;100010.06;4970976;28;45544;-75
2022/09/11 08:31:17;;;;;;;;;2.67;2.67;;;;;47.54;19.03;99956.59;4966019;28;45286;-79
2022/09/11 08:33:42;;;;;;;;;3.00;3.00;;;;;47.75;19.50;99970.25;4971853;28;45417;-78
2022/09/11 08:36:10;;;;;;;;;3.67;3.67;;;;;47.79;19.38;99999.25;4976063;28;45464;-79
2022/09/11 08:38:37;;;;;;;;;2.00;2.00;;;;;47.25;19.61;99977.16;4976930;28;46318;-79
2022/09/11 08:41:16;;;;;;;;;4.33;3.33;;;;;47.07;20.42;100006.19;4972203;28;45605;-80
2022/09/11 08:43:55;;;;;;;;;3.00;2.67;;;;;46.84;20.50;99995.47;4980678;28;45467;-79
2022/09/11 08:46:25;;;;;;;;;2.00;2.00;;;;;46.39;20.58;99950.72;4981702;28;45506;-77
2022/09/11 08:49:13;;;;;;;;;4.00;4.00;;;;;46.16;21.17;99989.66;4980305;28;46279;-79
2022/09/11 08:51:40;;;;;;;;;1.67;1.67;;;;;45.80;21.51;99998.84;4980442;28;45292;-71
2022/09/11 08:54:06;;;;;;;;;2.67;2.67;;;;;45.81;22.30;100001.44;4978976;28;45466;-76
2022/09/11 08:56:35;;;;;;;;;3.00;3.00;;;;;45.70;22.56;99996.44;4980047;28;45487;-80
2022/09/11 08:59:29;;;;;;;;;2.33;2.33;;;;;45.44;22.91;99988.69;4994989;28;46321;-80
2022/09/11 09:02:14;;;;;;;;;2.67;2.67;;;;;45.51;22.74;99995.16;4979803;28;45405;-79
2022/09/11 09:05:04;;;;;;;;;3.33;3.33;;;;;45.44;23.26;99996.97;4992910;28;45406;-78
2022/09/11 09:07:56;;;;;;;;;3.67;3.67;;;;;45.29;22.99;99996.16;4992702;28;45512;-77
2022/09/11 09:10:45;;;;;;;;;5.00;4.67;;;;;45.45;22.63;99998.69;4967255;28;46270;-79
2022/09/11 09:13:52;;;;;;;;;4.33;4.00;;;;;45.63;22.32;99946.69;4969496;28;45526;-72
2022/09/11 09:16:33;;;;;;;;;3.00;2.67;;;;;46.42;21.93;99995.41;4918360;28;45658;-80
2022/09/11 09:19:13;;;;;;;;;3.00;3.00;;;;;46.73;22.03;99991.34;4919491;28;45638;-78
2022/09/11 09:22:07;;;;;;;;;4.00;4.00;;;;;47.24;20.62;99997.56;4946922;28;46053;-80
2022/09/11 09:24:43;;;;;;;;;5.33;5.33;;;;;47.55;20.82;99985.97;4966683;28;45581;-82
2022/09/11 09:27:16;;;;;;;;;5.00;5.00;;;;;47.85;20.70;99978.13;4968022;28;45492;-82
2022/09/11 09:29:46;;;;;;;;;9.33;9.00;;;;;48.31;19.85;99991.19;4967604;28;45578;-72
2022/09/11 09:32:19;;;;;;;;;3.67;3.00;;;;;48.47;19.61;99964.94;4967772;28;46160;-75
2022/09/11 09:34:51;;;;;;;;;4.67;4.67;;;;;49.17;19.66;100003.16;4983990;28;45510;-79
2022/09/11 09:37:20;;;;;;;;;4.00;4.00;;;;;49.41;18.46;100009.88;4968735;28;46378;-81
2022/09/11 09:39:47;;;;;;;;;4.67;4.67;;;;;49.41;18.19;99992.34;4971099;28;45488;-72
2022/09/11 09:42:39;;;;;;;;;3.33;3.33;;;;;49.91;18.31;100000.81;4982356;28;45620;-76
2022/09/11 09:45:26;;;;;;;;;3.33;3.33;;;;;50.20;18.13;99995.66;4968695;28;45300;-80
2022/09/11 09:47:52;;;;;;;;;4.33;4.33;;;;;50.36;17.44;99997.84;4968373;28;45637;-76
2022/09/11 09:50:24;;;;;;;;;3.00;3.00;;;;;50.07;18.25;99989.13;4975288;28;45617;-76
2022/09/11 09:52:52;;;;;;;;;3.67;3.00;;;;;49.77;18.24;99994.50;4966202;28;45415;-77
2022/09/11 09:55:20;;;;;;;;;8.67;6.00;;;;;49.44;18.62;99998.31;4967834;28;45594;-80
2022/09/11 09:57:46;;;;;;;;;4.00;4.00;;;;;49.48;17.63;99985.69;4966712;28;45434;-79
2022/09/11 10:00:18;;;;;;;;;3.00;3.00;;;;;49.68;18.21;99999.44;4968522;28;45483;-78
2022/09/11 10:02:53;;;;;;;;;4.00;3.33;;;;;49.52;18.12;99994.44;4966175;28;46212;-71
2022/09/11 10:05:39;;;;;;;;;3.00;3.00;;;;;49.50;17.71;99986.31;4965520;28;45356;-79
2022/09/11 10:08:24;;;;;;;;;3.00;3.00;;;;;49.28;16.87;99971.06;4977866;28;45618;-79
2022/09/11 10:10:56;;;;;;;;;3.33;3.33;;;;;49.11;17.42;99974.38;4976005;28;45607;-76
2022/09/11 10:13:27;;;;;;;;;2.67;2.67;;;;;49.01;17.22;99974.00;4975976;28;45851;-76
2022/09/11 10:15:55;;;;;;;;;14.67;14.67;;;;;48.95;18.20;99967.38;4976760;28;45468;-76
2022/09/11 10:18:39;;;;;;;;;5.00;5.00;;;;;48.74;18.16;99975.97;4992259;28;45196;-75
2022/09/11 10:21:10;;;;;;;;;4.00;3.67;;;;;48.67;18.02;99980.69;4974088;28;45354;-79
2022/09/11 10:23:46;;;;;;;;;7.33;7.33;;;;;48.57;18.05;99970.88;4964270;28;46360;-76
2022/09/11 10:26:17;;;;;;;;;3.67;3.67;;;;;48.56;17.95;99973.88;4957447;28;45417;-76
2022/09/11 10:28:45;;;;;;;;;9.33;9.33;;;;;48.31;18.74;99971.81;4958279;28;45505;-74
2022/09/11 10:31:15;;;;;;;;;16.67;16.33;;;;;48.16;18.87;99960.06;4958969;28;45592;-75
2022/09/11 10:33:47;;;;;;;;;5.33;4.33;;;;;47.97;19.59;99964.53;4958518;28;45629;-74
2022/09/11 10:36:21;;;;;;;;;5.67;5.67;;;;;47.44;19.66;99954.22;4973206;28;45342;-79
2022/09/11 10:38:48;;;;;;;;;8.00;8.00;;;;;47.01;19.53;99960.03;4962866;28;46107;-78
2022/09/11 10:41:13;;;;;;;;;4.33;4.33;;;;;46.36;20.28;99960.28;4965401;28;45660;-71
2022/09/11 10:43:58;;;;;;;;;3.00;3.00;;;;;45.54;21.41;99958.03;4965334;28;46777;-77
2022/09/11 10:46:36;;;;;;;;;9.67;9.00;;;;;44.99;22.12;99965.91;4971286;28;45460;-76
2022/09/11 10:49:04;;;;;;;;;4.00;3.33;;;;;44.27;23.19;99950.81;4964687;28;45507;-77
2022/09/11 10:51:36;;;;;;;;;4.33;4.33;;;;;43.67;23.52;99953.44;4967926;28;45807;-78
2022/09/11 10:54:20;;;;;;;;;4.00;4.00;;;;;42.84;24.22;99948.50;4967656;28;45525;-77
2022/09/11 10:57:12;;;;;;;;;4.00;3.67;;;;;42.39;25.19;99950.88;4978150;28;45417;-76
2022/09/11 10:59:46;;;;;;;;;3.67;3.00;;;;;41.63;24.17;99935.66;4976890;28;45575;-76
2022/09/11 11:02:27;;;;;;;;;4.00;4.00;;;;;40.83;24.61;99908.69;4977246;28;45284;-78
2022/09/11 11:04:55;;;;;;;;;3.67;3.67;;;;;40.83;24.88;99927.88;4977988;28;45419;-77
2022/09/11 11:07:44;;;;;;;;;6.00;6.00;;;;;40.83;25.93;99936.06;4977292;28;45508;-73
2022/09/11 11:10:44;;;;;;;;;5.00;5.00;;;;;40.51;27.26;99940.34;4977864;28;45391;-76
2022/09/11 11:13:13;;;;;;;;;8.67;8.33;;;;;40.41;25.89;99925.94;4978747;28;45484;-77
2022/09/11 11:15:42;;;;;;;;;3.67;3.67;;;;;40.14;27.22;99931.38;4978238;28;46364;-76
2022/09/11 11:18:26;;;;;;;;;6.00;6.00;;;;;40.09;27.68;99927.41;4976682;28;45762;-74
2022/09/11 11:21:05;;;;;;;;;4.33;4.33;;;;;40.05;27.74;99926.91;4976838;28;45580;-77
2022/09/11 11:23:42;;;;;;;;;5.33;4.33;;;;;39.86;28.04;99927.91;4978325;28;45273;-77
2022/09/11 11:26:22;;;;;;;;;6.33;6.00;;;;;39.73;26.53;99921.97;4978045;28;46000;-77
2022/09/11 11:29:00;;;;;;;;;4.67;4.67;;;;;39.47;26.11;99921.91;4976856;28;45378;-77
2022/09/11 11:31:56;;;;;;;;;5.00;5.00;;;;;39.30;27.35;99924.47;4978232;28;45361;-78
2022/09/11 11:34:41;;;;;;;;;7.00;5.00;;;;;39.21;27.48;99917.19;4976979;28;45529;-77
2022/09/11 11:37:31;;;;;;;;;4.33;4.33;;;;;39.15;26.83;99923.28;4977452;28;45475;-76
2022/09/11 11:40:22;;;;;;;;;4.00;4.00;;;;;38.87;28.22;99911.50;4977863;28;45246;-76
2022/09/11 11:43:00;;;;;;;;;6.33;6.33;;;;;38.73;28.07;99900.06;4977389;28;45489;-75
2022/09/11 11:45:33;;;;;;;;;7.00;6.67;;;;;38.78;28.61;99905.09;4976369;28;45620;-76
2022/09/11 11:48:08;;;;;;;;;6.00;6.00;;;;;38.62;28.76;99896.66;4977254;28;45483;-73